Time;durP1;ratioP1;P1;durP2;ratioP2;P2;SDS_P1;SDS_P2;PMS_P1;PMS_P2;Temp;Humidity;BMP_temperature;BMP_pressure;BME280_temperature;BME280_humidity;BME280_pressure;Samples;Min_cycle;Max_cycle;Signal;HPM_P1;HPM_P2
2021/12/05 00:22:18;;;;;;;5.55;2.17;;;4.00;77.50;;;;;;4153825;28;20476;-66
2021/12/05 00:24:19;;;;;;;6.97;1.67;;;4.00;77.60;;;;;;4150503;28;20044;-68
2021/12/05 00:26:20;;;;;;;9.80;2.28;;;4.00;77.50;;;;;;4156610;28;20038;-67
2021/12/05 00:57:52;;;;;;;9.40;2.33;;;4.10;77.00;;;;;;4156205;28;20487;-67
2021/12/05 01:11:02;;;;;;;4.22;1.98;;;4.10;76.50;;;;;;4141413;28;20449;-67
2021/12/05 01:15:27;;;;;;;9.30;2.60;;;4.00;76.30;;;;;;4141347;28;20068;-67
2021/12/05 01:17:38;;;;;;;5.05;2.17;;;4.00;76.30;;;;;;4156193;28;20046;-69
2021/12/05 01:19:39;;;;;;;10.23;3.20;;;4.00;76.30;;;;;;4158235;28;20216;-68
2021/12/05 01:21:40;;;;;;;8.75;2.42;;;4.00;76.30;;;;;;4156566;28;20033;-68
2021/12/05 01:23:54;;;;;;;11.07;2.72;;;4.00;76.50;;;;;;4137117;28;20058;-68
2021/12/05 01:26:19;;;;;;;5.47;2.50;;;4.00;76.50;;;;;;4120759;28;20972;-68
2021/12/05 01:35:50;;;;;;;4.35;2.45;;;3.90;77.00;;;;;;4153962;28;20385;-67
2021/12/05 01:37:55;;;;;;;7.68;3.13;;;3.90;77.20;;;;;;4153031;28;20562;-67
2021/12/05 01:47:34;;;;;;;5.97;2.67;;;3.80;77.50;;;;;;4152444;28;20108;-67
2021/12/05 01:50:43;;;;;;;8.73;2.97;;;3.80;77.70;;;;;;4157403;28;20068;-67
2021/12/05 02:34:40;;;;;;;9.15;3.85;;;3.50;79.60;;;;;;4158647;28;20057;-67
2021/12/05 02:43:28;;;;;;;7.13;2.88;;;3.40;79.90;;;;;;4154505;28;20536;-67
2021/12/05 02:45:29;;;;;;;6.93;3.67;;;3.40;80.00;;;;;;4154332;28;20025;-66
2021/12/05 02:47:30;;;;;;;8.52;3.33;;;3.30;79.90;;;;;;4151546;28;20061;-67
2021/12/05 02:49:32;;;;;;;12.48;3.45;;;3.30;79.80;;;;;;4155150;28;20120;-68
2021/12/05 02:51:34;;;;;;;13.98;3.65;;;3.30;79.90;;;;;;4144849;28;20530;-67
2021/12/05 02:54:04;;;;;;;8.25;3.00;;;3.30;80.00;;;;;;4150419;28;20454;-67
2021/12/05 02:55:56;;;;;;;7.80;2.80;;;3.20;80.10;;;;;;4148593;28;20128;-67
2021/12/05 02:58:02;;;;;;;11.13;2.47;;;3.20;80.30;;;;;;4139390;28;20018;-67
2021/12/05 03:00:09;;;;;;;8.45;2.33;;;3.20;80.20;;;;;;4155564;28;20438;-67
2021/12/05 03:02:16;;;;;;;7.13;2.55;;;3.20;80.20;;;;;;4150855;28;20021;-67
2021/12/05 03:04:17;;;;;;;8.45;2.65;;;3.20;80.20;;;;;;4141985;28;20037;-67
2021/12/05 03:06:22;;;;;;;10.52;3.42;;;3.10;80.20;;;;;;4136488;28;20282;-67
2021/12/05 03:08:23;;;;;;;6.47;2.92;;;3.10;80.30;;;;;;4150471;28;20141;-67
2021/12/05 03:10:24;;;;;;;5.32;2.40;;;3.10;80.40;;;;;;4153371;28;20033;-68
2021/12/05 03:12:24;;;;;;;4.32;2.03;;;3.10;80.30;;;;;;4157477;28;20087;-68
2021/12/05 03:14:25;;;;;;;3.72;1.90;;;3.10;80.00;;;;;;4158693;28;20192;-67
2021/12/05 03:16:26;;;;;;;4.05;1.83;;;3.00;79.60;;;;;;4154229;28;20438;-67
2021/12/05 03:18:27;;;;;;;3.72;1.75;;;3.00;79.50;;;;;;4136723;28;20034;-67
2021/12/05 03:20:27;;;;;;;3.75;2.08;;;2.90;79.40;;;;;;4145250;28;20084;-67
2021/12/05 03:22:28;;;;;;;3.97;1.38;;;2.90;79.50;;;;;;4147731;28;20064;-67
2021/12/05 03:24:29;;;;;;;2.58;1.40;;;2.80;79.60;;;;;;4152441;28;20486;-68
2021/12/05 03:26:32;;;;;;;3.50;1.55;;;2.80;79.70;;;;;;4157619;28;20396;-67
2021/12/05 03:28:33;;;;;;;5.25;1.52;;;2.70;79.60;;;;;;4139068;28;20109;-67
2021/12/05 03:30:33;;;;;;;2.92;1.30;;;2.70;79.70;;;;;;4154315;28;20083;-67
2021/12/05 03:32:34;;;;;;;2.53;1.40;;;2.70;79.70;;;;;;4155060;28;20017;-66
2021/12/05 03:34:35;;;;;;;2.38;1.30;;;2.60;79.90;;;;;;4154081;28;20539;-68
2021/12/05 03:36:39;;;;;;;2.60;1.27;;;2.60;80.00;;;;;;4156969;28;20151;-68
2021/12/05 03:38:40;;;;;;;2.55;1.15;;;2.60;80.10;;;;;;4152438;28;20037;-67
2021/12/05 03:40:40;;;;;;;4.38;1.33;;;2.50;80.00;;;;;;4153640;28;20037;-67
2021/12/05 03:42:41;;;;;;;4.72;1.23;;;2.50;80.80;;;;;;4160164;28;20461;-68
2021/12/05 03:44:42;;;;;;;3.65;1.00;;;2.40;80.10;;;;;;4153393;28;20038;-68
2021/12/05 03:46:42;;;;;;;3.13;1.27;;;2.40;80.20;;;;;;4152741;28;20030;-68
2021/12/05 03:48:45;;;;;;;9.57;1.30;;;2.40;80.30;;;;;;4105659;28;20137;-68
2021/12/05 03:50:47;;;;;;;;;;;2.40;80.30;;;;;;4137516;28;20033;-68
2021/12/05 03:52:48;;;;;;;2.25;1.20;;;2.40;80.30;;;;;;4151007;28;20361;-67
2021/12/05 03:54:48;;;;;;;1.75;0.80;;;2.30;80.10;;;;;;4132124;28;20038;-67
2021/12/05 03:56:51;;;;;;;4.47;1.35;;;2.30;80.10;;;;;;4154991;28;20029;-68
2021/12/05 03:58:51;;;;;;;7.65;1.40;;;2.20;80.10;;;;;;4154375;28;20104;-67
2021/12/05 04:00:53;;;;;;;2.20;0.95;;;2.20;80.20;;;;;;4151543;28;20041;-66
2021/12/05 04:02:54;;;;;;;4.47;1.30;;;2.20;80.30;;;;;;4153780;28;20917;-66
2021/12/05 04:04:55;;;;;;;5.30;1.02;;;2.20;80.40;;;;;;4150231;28;20032;-67
2021/12/05 04:06:56;;;;;;;2.35;1.02;;;2.20;80.50;;;;;;4154812;28;20097;-66
2021/12/05 04:08:57;;;;;;;2.55;1.10;;;2.10;80.60;;;;;;4151036;28;20033;-67
2021/12/05 04:11:01;;;;;;;3.00;0.88;;;2.10;80.70;;;;;;4134505;28;20029;-66
2021/12/05 04:13:02;;;;;;;2.47;0.88;;;2.10;80.80;;;;;;4154027;28;20017;-66
2021/12/05 04:15:03;;;;;;;3.22;1.02;;;2.10;80.80;;;;;;4150568;28;20025;-67
2021/12/05 04:17:06;;;;;;;4.28;1.13;;;2.10;80.90;;;;;;4153343;28;20761;-66
2021/12/05 04:19:06;;;;;;;1.92;0.85;;;2.00;80.90;;;;;;4136740;28;20050;-67
2021/12/05 04:21:07;;;;;;;1.58;0.80;;;2.00;80.90;;;;;;4155147;28;20529;-67
2021/12/05 04:23:08;;;;;;;2.58;1.00;;;2.00;80.90;;;;;;4152163;28;20021;-66
2021/12/05 04:25:10;;;;;;;1.65;0.90;;;2.00;80.90;;;;;;4151017;28;20033;-67
2021/12/05 04:27:11;;;;;;;1.67;1.03;;;2.00;80.90;;;;;;4154022;28;20036;-67
2021/12/05 04:29:11;;;;;;;4.18;1.48;;;2.00;81.80;;;;;;4139843;28;20308;-67
2021/12/05 04:31:13;;;;;;;3.33;1.42;;;2.00;81.10;;;;;;4151632;28;20387;-67
2021/12/05 04:33:13;;;;;;;3.72;1.67;;;1.90;81.10;;;;;;4153273;28;20032;-67
2021/12/05 04:35:14;;;;;;;3.30;1.55;;;1.90;81.20;;;;;;4153768;28;20338;-67
2021/12/05 04:37:15;;;;;;;4.63;1.92;;;1.90;81.40;;;;;;4153903;28;20032;-67
2021/12/05 04:39:16;;;;;;;3.92;1.50;;;1.90;81.40;;;;;;4136125;28;20029;-67
2021/12/05 04:41:16;;;;;;;2.55;1.50;;;1.90;81.50;;;;;;4142057;28;20409;-66
2021/12/05 04:43:17;;;;;;;4.07;2.17;;;1.90;81.50;;;;;;4157713;28;20473;-66
2021/12/05 04:45:26;;;;;;;4.03;1.50;;;1.90;81.60;;;;;;4153509;28;20095;-67
2021/12/05 04:47:27;;;;;;;5.15;1.80;;;1.90;81.60;;;;;;4141108;28;20486;-67
2021/12/05 04:49:27;;;;;;;3.28;1.77;;;1.90;81.60;;;;;;4158604;28;20215;-66
2021/12/05 04:51:31;;;;;;;5.72;2.20;;;1.90;81.50;;;;;;4153771;28;20153;-66
2021/12/05 04:53:33;;;;;;;7.07;1.77;;;1.90;81.70;;;;;;4137046;28;20037;-66
2021/12/05 04:55:34;;;;;;;4.55;1.70;;;1.90;81.70;;;;;;4136116;28;20030;-67
2021/12/05 04:57:34;;;;;;;4.95;2.10;;;1.90;81.70;;;;;;4158077;28;20098;-67
2021/12/05 04:59:37;;;;;;;4.60;1.70;;;1.90;81.70;;;;;;4155589;28;20042;-66
2021/12/05 05:01:37;;;;;;;3.33;1.60;;;1.90;81.80;;;;;;4155321;28;20481;-66
2021/12/05 05:03:38;;;;;;;3.83;1.45;;;1.90;81.90;;;;;;4159088;28;20079;-66
2021/12/05 05:05:45;;;;;;;4.35;1.38;;;1.90;81.90;;;;;;4141154;28;20100;-66
2021/12/05 05:07:46;;;;;;;4.57;1.40;;;1.90;81.90;;;;;;4156698;28;20104;-66
2021/12/05 05:09:47;;;;;;;1.48;0.98;;;1.90;81.90;;;;;;4157085;28;20794;-66
2021/12/05 05:11:48;;;;;;;2.78;1.20;;;1.90;81.90;;;;;;4133451;28;20062;-67
2021/12/05 05:13:49;;;;;;;4.22;1.48;;;1.90;81.90;;;;;;4153875;28;20168;-67
2021/12/05 05:15:49;;;;;;;3.20;1.30;;;1.90;81.90;;;;;;4157946;28;20064;-67
2021/12/05 05:17:51;;;;;;;4.95;1.30;;;1.90;81.90;;;;;;4158264;28;20033;-67
2021/12/05 05:19:57;;;;;;;2.88;1.20;;;1.90;81.90;;;;;;4158220;28;20025;-67
2021/12/05 05:22:10;;;;;;;2.63;1.17;;;1.90;81.90;;;;;;4151509;28;20152;-67
2021/12/05 05:30:56;;;;;;;3.92;1.50;;;1.90;82.10;;;;;;4157390;28;20029;-67
2021/12/05 05:42:25;;;;;;;5.22;1.25;;;2.00;82.30;;;;;;4152585;28;20018;-68
2021/12/05 05:48:47;;;;;;;;;;;2.10;82.30;;;;;;4157825;28;20033;-67
2021/12/05 05:50:48;;;;;;;4.43;1.80;;;2.00;82.30;;;;;;4140389;28;20276;-67
2021/12/05 05:52:49;;;;;;;3.53;1.38;;;2.10;82.20;;;;;;4133428;28;20029;-67
2021/12/05 05:54:50;;;;;;;2.78;1.48;;;2.00;82.70;;;;;;4150635;28;20030;-67
2021/12/05 05:56:57;;;;;;;2.85;1.60;;;2.00;81.90;;;;;;4137375;28;20031;-66
2021/12/05 05:59:04;;;;;;;3.38;1.75;;;2.00;82.00;;;;;;4158142;28;20502;-67
2021/12/05 06:01:08;;;;;;;4.40;1.75;;;2.00;82.10;;;;;;4153882;28;20072;-67
2021/12/05 06:03:21;;;;;;;;;;;2.00;82.00;;;;;;4154543;28;20022;-67
2021/12/05 06:05:22;;;;;;;3.78;1.88;;;2.00;82.10;;;;;;4139299;28;19914;-67
2021/12/05 06:07:25;;;;;;;4.05;2.00;;;2.00;81.90;;;;;;4156072;28;20959;-67
2021/12/05 06:09:25;;;;;;;3.85;1.80;;;2.00;81.90;;;;;;4132702;28;20454;-67
2021/12/05 06:11:26;;;;;;;4.10;1.70;;;2.00;81.90;;;;;;4150310;28;20112;-67
2021/12/05 06:13:30;;;;;;;4.25;1.55;;;2.00;81.90;;;;;;4136843;28;20120;-67
2021/12/05 06:15:30;;;;;;;2.58;1.15;;;2.00;82.00;;;;;;4154047;28;20486;-67
2021/12/05 06:17:31;;;;;;;5.60;1.40;;;2.00;82.00;;;;;;4155424;28;20114;-67
2021/12/05 06:19:32;;;;;;;6.22;1.40;;;2.00;82.10;;;;;;4158122;28;20535;-67
2021/12/05 06:21:32;;;;;;;4.85;1.33;;;2.00;82.10;;;;;;4136600;28;20022;-67
2021/12/05 06:23:33;;;;;;;2.67;1.20;;;2.00;82.10;;;;;;4155984;28;20029;-67
2021/12/05 06:25:35;;;;;;;2.88;1.38;;;2.00;82.20;;;;;;4136949;28;20033;-67
2021/12/05 06:27:36;;;;;;;5.80;1.50;;;2.00;82.30;;;;;;4156285;28;20493;-67
2021/12/05 06:29:43;;;;;;;5.05;1.27;;;1.90;82.20;;;;;;4153025;28;20147;-67
2021/12/05 06:32:04;;;;;;;2.63;1.10;;;2.00;82.30;;;;;;4154214;28;20033;-68
2021/12/05 06:41:04;;;;;;;2.55;1.38;;;2.00;82.40;;;;;;4147121;28;20561;-67
2021/12/05 06:45:56;;;;;;;2.78;1.13;;;2.00;82.50;;;;;;4156038;28;20009;-68
2021/12/05 06:47:44;;;;;;;2.92;1.20;;;2.00;82.50;;;;;;4151176;28;20044;-67
2021/12/05 06:49:45;;;;;;;2.83;1.35;;;2.10;82.60;;;;;;4152789;28;20025;-68
2021/12/05 06:51:45;;;;;;;3.60;1.10;;;2.10;82.60;;;;;;4149535;28;20033;-68
2021/12/05 06:53:46;;;;;;;1.70;0.85;;;2.10;82.70;;;;;;4152070;28;20025;-67
2021/12/05 06:55:46;;;;;;;2.50;1.00;;;2.10;82.70;;;;;;4139521;28;20030;-67
2021/12/05 06:57:47;;;;;;;4.13;1.25;;;2.10;82.70;;;;;;4152309;28;20108;-67
2021/12/05 06:59:49;;;;;;;2.33;1.08;;;2.10;82.70;;;;;;4148936;28;20156;-67
2021/12/05 07:01:50;;;;;;;2.55;1.00;;;2.20;82.90;;;;;;4135660;28;20034;-67
2021/12/05 07:03:51;;;;;;;3.08;1.20;;;2.20;82.90;;;;;;4137882;28;20036;-67
2021/12/05 07:06:07;;;;;;;3.40;0.90;;;2.20;82.90;;;;;;4152305;28;20207;-66
2021/12/05 07:08:09;;;;;;;1.85;1.00;;;2.20;83.00;;;;;;4152392;28;20485;-67
2021/12/05 07:10:12;;;;;;;2.80;0.82;;;2.20;83.10;;;;;;4153571;28;20029;-67
2021/12/05 07:16:55;;;;;;;1.13;0.82;;;2.30;83.20;;;;;;4148808;28;19916;-67
2021/12/05 07:19:12;;;;;;;1.42;0.80;;;2.40;83.00;;;;;;4153084;28;20483;-67
2021/12/05 07:24:01;;;;;;;3.17;1.20;;;2.40;82.90;;;;;;4147609;28;20087;-67
2021/12/05 07:26:20;;;;;;;3.15;1.33;;;2.40;82.90;;;;;;4152345;28;20026;-68
2021/12/05 07:42:23;;;;;;;1.80;0.98;;;2.50;82.80;;;;;;4148790;28;20026;-69
2021/12/05 07:44:24;;;;;;;2.83;1.10;;;2.40;82.80;;;;;;4133647;28;20149;-69
2021/12/05 07:46:25;;;;;;;1.02;0.65;;;2.50;82.80;;;;;;4134968;28;20422;-69
2021/12/05 07:48:31;;;;;;;1.58;0.93;;;2.50;83.50;;;;;;4153645;28;20052;-69
2021/12/05 07:50:49;;;;;;;1.42;0.60;;;2.50;82.70;;;;;;4149703;28;20425;-69
2021/12/05 07:52:53;;;;;;;1.67;0.80;;;2.50;82.70;;;;;;4130980;28;20026;-69
2021/12/05 07:55:06;;;;;;;4.15;0.98;;;2.50;82.60;;;;;;4149750;28;20080;-69
2021/12/05 07:59:54;;;;;;;3.15;0.77;;;2.50;82.40;;;;;;4150136;28;20045;-69
2021/12/05 08:15:40;;;;;;;2.67;1.10;;;2.60;82.30;;;;;;4147018;28;20044;-68
2021/12/05 08:17:49;;;;;;;2.67;1.10;;;2.60;82.20;;;;;;4130407;28;20095;-68
2021/12/05 08:19:50;;;;;;;2.90;1.20;;;2.60;82.30;;;;;;4116300;28;20050;-69
2021/12/05 08:21:56;;;;;;;1.63;0.85;;;2.60;82.20;;;;;;4153959;28;20038;-69
2021/12/05 08:23:57;;;;;;;3.60;0.95;;;2.60;82.30;;;;;;4127497;28;20038;-69
2021/12/05 08:26:09;;;;;;;2.15;1.00;;;2.60;82.20;;;;;;4146275;28;20048;-69
2021/12/05 08:30:27;;;;;;;6.10;1.77;;;2.60;82.10;;;;;;4127906;28;20045;-69
2021/12/05 08:32:36;;;;;;;2.55;1.42;;;2.70;82.70;;;;;;4151054;28;20726;-68
2021/12/05 09:19:55;;;;;;;2.72;1.65;;;2.80;81.30;;;;;;4134296;28;20568;-68
2021/12/05 10:12:28;;;;;;;4.10;1.95;;;3.00;81.90;;;;;;4145172;28;20361;-69
2021/12/05 10:17:39;;;;;;;5.63;1.42;;;3.00;81.80;;;;;;4149396;28;20366;-69
2021/12/05 10:27:13;;;;;;;2.88;1.60;;;3.00;81.60;;;;;;4132731;28;20037;-69
2021/12/05 10:38:07;;;;;;;2.97;1.05;;;3.00;81.30;;;;;;4134169;28;20036;-69
2021/12/05 10:40:15;;;;;;;1.52;0.90;;;3.00;81.20;;;;;;4149352;28;20285;-69
2021/12/05 10:42:42;;;;;;;3.67;1.00;;;2.90;81.00;;;;;;4135864;28;20497;-69
2021/12/05 10:44:44;;;;;;;4.00;1.40;;;2.90;80.80;;;;;;4152016;28;20152;-69
2021/12/05 10:46:48;;;;;;;4.07;1.70;;;2.90;81.00;;;;;;4136043;28;20121;-69
2021/12/05 10:49:16;;;;;;;4.78;1.65;;;2.90;81.00;;;;;;4151974;28;20030;-69
2021/12/05 10:51:19;;;;;;;4.10;1.42;;;2.90;81.00;;;;;;4146234;28;20060;-69
2021/12/05 10:53:31;;;;;;;2.67;1.60;;;2.90;81.20;;;;;;4127559;28;20089;-69
2021/12/05 10:55:32;;;;;;;4.07;1.67;;;2.90;81.20;;;;;;4151643;28;20033;-69
2021/12/05 10:57:40;;;;;;;1.98;1.40;;;2.90;81.30;;;;;;4117623;28;20407;-69
2021/12/05 10:59:41;;;;;;;4.15;1.75;;;2.90;81.30;;;;;;4149638;28;20489;-69
2021/12/05 11:01:49;;;;;;;3.47;1.60;;;2.90;81.40;;;;;;4144817;28;20034;-69
2021/12/05 11:03:58;;;;;;;3.13;1.73;;;3.00;81.50;;;;;;4146953;28;20057;-69
2021/12/05 11:05:59;;;;;;;2.97;1.65;;;3.00;81.50;;;;;;4110320;28;20211;-69
2021/12/05 11:08:00;;;;;;;3.97;1.65;;;3.00;81.50;;;;;;4144628;28;20123;-69
2021/12/05 11:10:02;;;;;;;4.35;1.88;;;3.00;81.40;;;;;;4129095;28;20497;-69
2021/12/05 11:12:16;;;;;;;4.37;1.20;;;3.00;81.40;;;;;;4149665;28;20022;-69
2021/12/05 11:14:21;;;;;;;;;;;3.00;81.40;;;;;;4125545;28;20292;-69
2021/12/05 11:16:45;;;;;;;10.82;4.63;;;3.00;81.50;;;;;;4147326;28;19933;-69
2021/12/05 11:18:46;;;;;;;15.80;6.28;;;3.00;81.20;;;;;;4113462;28;20117;-71
2021/12/05 11:20:47;;;;;;;4.25;1.80;;;3.00;81.10;;;;;;4113141;28;20069;-70
2021/12/05 11:22:49;;;;;;;4.38;1.92;;;2.90;80.90;;;;;;4140488;28;20034;-69
2021/12/05 11:25:01;;;;;;;3.25;1.70;;;3.00;81.00;;;;;;4142777;28;20106;-70
2021/12/05 11:27:10;;;;;;;6.13;1.77;;;2.90;81.10;;;;;;4105415;28;20121;-69
2021/12/05 11:29:12;;;;;;;2.45;1.58;;;2.90;81.20;;;;;;4143898;28;20052;-69
2021/12/05 11:31:28;;;;;;;1.52;1.00;;;2.90;81.30;;;;;;4112157;28;20057;-70
2021/12/05 11:33:28;;;;;;;2.72;0.93;;;2.90;81.40;;;;;;4130447;28;20102;-70
2021/12/05 11:35:32;;;;;;;3.47;1.30;;;3.00;81.50;;;;;;4148123;28;20037;-70
2021/12/05 11:37:51;;;;;;;2.38;1.25;;;2.90;81.40;;;;;;4142426;28;20493;-69
2021/12/05 11:40:04;;;;;;;1.63;1.05;;;2.90;81.50;;;;;;4109975;28;20133;-69
2021/12/05 11:42:18;;;;;;;4.15;1.55;;;2.90;81.50;;;;;;4145909;28;20304;-68
2021/12/05 11:44:20;;;;;;;1.88;1.13;;;2.90;81.40;;;;;;4106589;28;20039;-69
2021/12/05 11:46:31;;;;;;;2.00;0.90;;;2.90;81.60;;;;;;4142484;28;20480;-69
2021/12/05 11:48:45;;;;;;;1.80;1.10;;;2.90;81.60;;;;;;4147067;28;20409;-68
2021/12/05 11:50:46;;;;;;;2.92;0.95;;;2.90;81.60;;;;;;4124799;28;20058;-69
2021/12/05 11:52:48;;;;;;;3.50;0.98;;;3.00;82.50;;;;;;4138343;28;20505;-69
2021/12/05 11:54:51;;;;;;;7.38;2.05;;;3.00;81.90;;;;;;4133342;28;20270;-69
2021/12/05 11:57:05;;;;;;;4.88;1.77;;;3.00;82.00;;;;;;4143964;28;20049;-68
2021/12/05 11:59:10;;;;;;;3.58;0.98;;;3.00;82.20;;;;;;4135429;28;20116;-68
2021/12/05 12:01:12;;;;;;;4.90;0.80;;;3.00;82.60;;;;;;4132440;28;20113;-68
2021/12/05 12:03:13;;;;;;;3.63;1.13;;;3.10;83.00;;;;;;4132961;28;20044;-69
2021/12/05 12:05:21;;;;;;;9.40;1.73;;;3.20;83.20;;;;;;4149144;28;20053;-69
2021/12/05 12:07:25;;;;;;;6.72;1.00;;;3.20;83.30;;;;;;4140826;28;20029;-68
2021/12/05 12:09:25;;;;;;;9.27;1.30;;;3.30;83.40;;;;;;4138780;28;20103;-69
2021/12/05 12:11:26;;;;;;;7.72;1.45;;;3.30;83.40;;;;;;4146092;28;20021;-69
2021/12/05 12:13:38;;;;;;;6.30;1.15;;;3.30;83.50;;;;;;4144038;28;20036;-69
2021/12/05 12:15:39;;;;;;;3.25;0.70;;;3.30;84.30;;;;;;4125234;28;20083;-68
2021/12/05 12:17:40;;;;;;;6.72;1.27;;;3.40;83.60;;;;;;4144656;28;20413;-68
2021/12/05 12:19:41;;;;;;;4.20;0.80;;;3.40;83.30;;;;;;4147389;28;20393;-68
2021/12/05 12:21:43;;;;;;;7.90;0.90;;;3.40;82.80;;;;;;4142963;28;20041;-68
2021/12/05 12:23:50;;;;;;;7.60;0.97;;;3.40;82.70;;;;;;4145361;28;20661;-68
2021/12/05 12:25:53;;;;;;;3.50;1.25;;;3.40;82.30;;;;;;4122227;28;20354;-68
2021/12/05 12:27:54;;;;;;;3.80;0.95;;;3.50;82.30;;;;;;4121520;28;20030;-69
2021/12/05 12:29:57;;;;;;;3.00;1.38;;;3.50;82.30;;;;;;4144358;28;20729;-68
2021/12/05 12:32:11;;;;;;;7.38;1.83;;;3.40;82.30;;;;;;4126390;28;20042;-69
2021/12/05 12:34:14;;;;;;;5.30;1.40;;;3.40;82.50;;;;;;4123379;28;20087;-69
2021/12/05 12:36:38;;;;;;;7.40;1.30;;;3.50;82.50;;;;;;4143371;28;20029;-69
2021/12/05 12:38:43;;;;;;;7.88;2.05;;;3.50;82.50;;;;;;4128849;28;21177;-68
2021/12/05 12:40:52;;;;;;;4.68;1.52;;;3.50;82.50;;;;;;4141344;28;20037;-68
2021/12/05 12:42:54;;;;;;;14.05;4.30;;;3.50;82.40;;;;;;4144337;28;20041;-69
2021/12/05 12:45:10;;;;;;;6.43;1.60;;;3.40;82.30;;;;;;4140551;28;20358;-68
2021/12/05 12:47:11;;;;;;;15.45;2.13;;;3.40;82.40;;;;;;4139586;28;20034;-68
2021/12/05 12:49:14;;;;;;;6.07;1.73;;;3.40;82.50;;;;;;4140703;28;20045;-68
2021/12/05 12:51:32;;;;;;;7.68;2.03;;;3.40;82.70;;;;;;4139665;28;20473;-68
2021/12/05 12:53:38;;;;;;;9.95;2.40;;;3.40;82.80;;;;;;4140816;28;20025;-68
2021/12/05 12:55:42;;;;;;;10.68;2.00;;;3.40;83.60;;;;;;4140615;28;20040;-68
2021/12/05 12:57:42;;;;;;;5.88;1.58;;;3.40;82.70;;;;;;4125545;28;20074;-68
2021/12/05 13:00:00;;;;;;;10.57;2.38;;;3.40;82.80;;;;;;4142495;28;20656;-68
2021/12/05 13:02:27;;;;;;;13.07;2.30;;;3.40;82.80;;;;;;4141906;28;20038;-68
2021/12/05 13:11:45;;;;;;;6.90;1.85;;;3.40;82.60;;;;;;4128565;28;20018;-70
2021/12/05 13:13:57;;;;;;;10.50;1.90;;;3.40;82.50;;;;;;4125570;28;20519;-68
2021/12/05 13:16:17;;;;;;;10.68;1.80;;;3.40;82.50;;;;;;4121879;28;20169;-67
2021/12/05 13:18:25;;;;;;;5.20;1.92;;;3.30;82.50;;;;;;4140902;28;20040;-68
2021/12/05 13:20:42;;;;;;;6.68;2.10;;;3.30;82.40;;;;;;4140331;28;20025;-68
2021/12/05 13:23:04;;;;;;;10.02;2.20;;;3.30;82.10;;;;;;4148324;28;20029;-68
2021/12/05 13:25:10;;;;;;;14.80;1.80;;;3.20;81.60;;;;;;4149040;28;20021;-68
2021/12/05 13:27:26;;;;;;;13.10;2.28;;;3.20;81.60;;;;;;4149150;28;20033;-68
2021/12/05 13:29:27;;;;;;;11.23;2.33;;;3.20;81.50;;;;;;4128796;28;20030;-69
2021/12/05 13:31:28;;;;;;;9.60;2.67;;;3.10;81.40;;;;;;4140233;28;21208;-69
2021/12/05 13:33:31;;;;;;;14.15;3.47;;;3.10;81.40;;;;;;4145895;28;20164;-68
2021/12/05 13:35:34;;;;;;;;;;;3.00;81.40;;;;;;4128682;28;20494;-68
2021/12/05 13:37:37;;;;;;;9.27;2.60;;;3.00;81.70;;;;;;4129608;28;19913;-69
2021/12/05 13:39:41;;;;;;;10.18;1.92;;;2.90;81.70;;;;;;4148157;28;20397;-68
2021/12/05 13:41:42;;;;;;;8.65;1.83;;;2.90;81.80;;;;;;4142316;28;20389;-68
2021/12/05 13:43:57;;;;;;;20.23;4.57;;;2.90;82.10;;;;;;4128275;28;20033;-68
2021/12/05 13:46:00;;;;;;;9.52;2.42;;;2.90;82.20;;;;;;4144753;28;20041;-68
2021/12/05 13:48:01;;;;;;;11.90;2.17;;;2.90;82.30;;;;;;4106721;28;20018;-68
2021/12/05 13:50:32;;;;;;;5.88;1.63;;;2.80;82.10;;;;;;4132204;28;20030;-67
2021/12/05 13:52:36;;;;;;;7.80;1.85;;;2.80;81.90;;;;;;4095588;28;21882;-68
2021/12/05 13:54:38;;;;;;;15.40;2.28;;;2.80;81.60;;;;;;4143526;28;20025;-68
2021/12/05 13:56:39;;;;;;;10.00;2.03;;;2.80;81.60;;;;;;4148665;28;20026;-68
2021/12/05 13:58:48;;;;;;;8.25;1.77;;;2.80;81.80;;;;;;4123142;28;20436;-69
2021/12/05 14:00:51;;;;;;;9.18;2.00;;;2.70;81.40;;;;;;4140077;28;20080;-69
2021/12/05 14:02:52;;;;;;;9.70;2.08;;;2.70;81.10;;;;;;4148215;28;20735;-68
2021/12/05 14:04:53;;;;;;;4.03;1.30;;;2.70;81.10;;;;;;4135209;28;20400;-69
2021/12/05 14:07:07;;;;;;;8.10;1.45;;;2.70;81.20;;;;;;4155319;28;20409;-68
2021/12/05 14:09:15;;;;;;;6.43;1.52;;;2.70;80.90;;;;;;4130098;28;20084;-68
2021/12/05 14:11:16;;;;;;;11.77;1.73;;;2.70;80.90;;;;;;4136669;28;20026;-68
2021/12/05 14:13:20;;;;;;;9.40;1.88;;;2.70;80.80;;;;;;4151519;28;20036;-69
2021/12/05 14:15:21;;;;;;;6.78;1.92;;;2.70;81.10;;;;;;4146942;28;20025;-69
2021/12/05 14:17:27;;;;;;;11.82;2.10;;;2.70;81.00;;;;;;4147649;28;20569;-68
2021/12/05 14:19:30;;;;;;;12.35;1.92;;;2.70;81.10;;;;;;4141906;28;20033;-69
2021/12/05 14:21:30;;;;;;;9.52;2.08;;;2.70;80.90;;;;;;4127300;28;20153;-69
2021/12/05 14:23:31;;;;;;;11.43;2.03;;;2.80;80.80;;;;;;4143040;28;20520;-68
2021/12/05 14:25:32;;;;;;;26.60;8.50;;;2.70;80.50;;;;;;4152679;28;20040;-69
2021/12/05 14:27:36;;;;;;;9.15;1.88;;;2.80;80.60;;;;;;4136768;28;20026;-69
2021/12/05 14:29:40;;;;;;;;;;;2.80;80.40;;;;;;4151854;28;20030;-68
2021/12/05 14:31:53;;;;;;;10.80;2.05;;;2.80;80.30;;;;;;4137533;28;19917;-68
2021/12/05 14:33:53;;;;;;;7.97;1.48;;;2.80;79.80;;;;;;4134501;28;20050;-68
2021/12/05 14:35:54;;;;;;;9.85;1.60;;;2.80;79.40;;;;;;4151716;28;20052;-68
2021/12/05 14:37:55;;;;;;;8.93;1.83;;;2.80;79.40;;;;;;4130683;28;20034;-68
2021/12/05 14:39:59;;;;;;;8.95;1.60;;;2.90;79.10;;;;;;4151062;28;20277;-68
2021/12/05 14:42:03;;;;;;;5.32;1.60;;;2.90;78.70;;;;;;4147768;28;20052;-68
2021/12/05 14:44:04;;;;;;;7.22;1.65;;;2.90;78.30;;;;;;4144419;28;20426;-68
2021/12/05 14:46:05;;;;;;;6.68;1.60;;;2.90;78.00;;;;;;4144570;28;20029;-69
2021/12/05 14:48:12;;;;;;;6.82;1.77;;;2.90;77.30;;;;;;4148814;28;20536;-68
2021/12/05 14:50:21;;;;;;;8.65;1.70;;;2.90;77.20;;;;;;4143436;28;20075;-68
2021/12/05 14:52:25;;;;;;;7.85;1.38;;;3.00;77.20;;;;;;4104550;28;20037;-68
2021/12/05 14:54:27;;;;;;;;;;;3.00;76.80;;;;;;4143731;28;20037;-68
2021/12/05 14:56:32;;;;;;;5.20;1.65;;;3.00;76.50;;;;;;4143435;28;19916;-69
2021/12/05 14:58:33;;;;;;;6.50;1.75;;;3.00;76.50;;;;;;4130500;28;20045;-68
2021/12/05 15:00:35;;;;;;;3.20;1.27;;;3.00;75.70;;;;;;4149713;28;20025;-68
2021/12/05 15:02:37;;;;;;;8.00;1.50;;;3.00;75.70;;;;;;4145687;28;20033;-68
2021/12/05 15:04:40;;;;;;;7.95;1.83;;;3.10;76.00;;;;;;4148763;28;20044;-68
2021/12/05 15:06:43;;;;;;;5.20;1.30;;;3.10;75.40;;;;;;4149282;28;20564;-68
2021/12/05 15:08:45;;;;;;;5.32;1.60;;;3.10;75.30;;;;;;4130658;28;20485;-69
2021/12/05 15:10:47;;;;;;;9.25;2.00;;;3.10;75.00;;;;;;4143673;28;20030;-68
2021/12/05 15:12:49;;;;;;;10.20;1.65;;;3.10;75.10;;;;;;4145286;28;20525;-68
2021/12/05 15:14:52;;;;;;;7.05;1.58;;;3.10;75.00;;;;;;4116016;28;20030;-68
2021/12/05 15:17:02;;;;;;;7.47;1.60;;;3.10;74.70;;;;;;4148784;28;20101;-68
2021/12/05 15:19:03;;;;;;;9.25;1.88;;;3.10;74.40;;;;;;4130273;28;20022;-67
2021/12/05 15:21:03;;;;;;;8.82;1.50;;;3.10;74.10;;;;;;4130831;28;20709;-68
2021/12/05 15:23:07;;;;;;;9.75;1.27;;;3.10;74.20;;;;;;4147327;28;20100;-69
2021/12/05 15:25:11;;;;;;;5.03;1.50;;;3.10;74.10;;;;;;4135471;28;20107;-67
2021/12/05 15:27:15;;;;;;;6.80;1.30;;;3.10;73.80;;;;;;4146770;28;20025;-68
2021/12/05 15:29:16;;;;;;;7.00;1.73;;;3.10;73.80;;;;;;4114479;28;20041;-68
2021/12/05 15:31:17;;;;;;;5.20;1.10;;;3.10;73.90;;;;;;4147876;28;20036;-67
2021/12/05 15:33:22;;;;;;;11.63;1.85;;;3.10;73.70;;;;;;4148704;28;20525;-68
2021/12/05 15:35:24;;;;;;;3.55;1.30;;;3.10;73.30;;;;;;4150291;28;20037;-68
2021/12/05 15:37:24;;;;;;;9.93;1.80;;;3.10;73.60;;;;;;4148524;28;20034;-68
2021/12/05 15:39:27;;;;;;;11.30;1.70;;;3.10;73.60;;;;;;4149411;28;20041;-68
2021/12/05 15:41:27;;;;;;;8.65;1.92;;;3.10;73.90;;;;;;4150986;28;20052;-68
2021/12/05 15:43:28;;;;;;;11.20;1.85;;;3.10;73.90;;;;;;4146561;28;20297;-68
2021/12/05 15:45:30;;;;;;;6.32;1.67;;;3.20;73.90;;;;;;4148103;28;20025;-68
2021/12/05 15:47:32;;;;;;;6.25;1.90;;;3.20;73.70;;;;;;4129241;28;20628;-67
2021/12/05 15:49:54;;;;;;;10.45;2.33;;;3.20;73.40;;;;;;4149577;28;20575;-68
2021/12/05 15:52:01;;;;;;;8.27;1.50;;;3.20;73.00;;;;;;4118298;28;20038;-67
2021/12/05 15:54:02;;;;;;;6.90;1.75;;;3.20;72.50;;;;;;4126326;28;20022;-68
2021/12/05 15:56:05;;;;;;;12.18;1.80;;;3.20;72.60;;;;;;4147155;28;20068;-68
2021/12/05 15:58:10;;;;;;;4.25;1.60;;;3.10;72.70;;;;;;4144988;28;20044;-67
2021/12/05 16:00:34;;;;;;;9.60;1.63;;;3.10;72.60;;;;;;4145253;28;20033;-68
2021/12/05 16:02:35;;;;;;;9.68;2.97;;;3.10;72.40;;;;;;4133968;28;20124;-68
2021/12/05 16:04:37;;;;;;;12.63;2.33;;;3.10;72.50;;;;;;4148283;28;20037;-68
2021/12/05 16:06:40;;;;;;;9.20;2.70;;;3.10;72.50;;;;;;4126098;28;20033;-68
2021/12/05 16:08:43;;;;;;;12.50;2.00;;;3.10;72.40;;;;;;4148216;28;20018;-68
2021/12/05 16:10:51;;;;;;;7.85;3.00;;;3.10;72.40;;;;;;4146945;28;20039;-67
2021/12/05 16:12:52;;;;;;;10.95;2.78;;;3.10;72.10;;;;;;4129969;28;20726;-68
2021/12/05 16:14:56;;;;;;;7.00;2.00;;;3.10;71.70;;;;;;4128833;28;20076;-67
2021/12/05 16:16:58;;;;;;;7.30;2.05;;;3.10;71.70;;;;;;4133106;28;20022;-68
2021/12/05 16:19:01;;;;;;;15.32;2.33;;;3.10;71.90;;;;;;4148049;28;20493;-69